XLU weather

Leo Airport
Leo, Siasili, Burkina Faso

Public forecast

Using degrees Celsius for public forecast. Weather courtesy of forecast.io.

Closest aviation weather report (METAR) to Leo Airport

Report is more than 6 hours old.

Closest report is Po Airport, 56.0 nm (103.8 km) E. Retrieved 2009/09/21 17:00 UTC (10 years ago):

DFCP 211700Z 18002KT 9999 FEW026TCU BKN260 30/23 Q1009

Closest aviation forecast (TAF) to Leo Airport

Closest forecast is Ouagadougou Airport, 82.8 nm (153.3 km) NNE. Retrieved 2019/10/13 18:21 UTC (5 hours ago):

TAF DFFD 131700Z 1318/1424 20008KT 9999 FEW021 TEMPO 1319/1324 TS SCT020 FEW036CB PROB30 TEMPO 1416/1422 4000 TSRA SCT021 FEW036CB